Time;durP1;ratioP1;P1;durP2;ratioP2;P2;SDS_P1;SDS_P2;PMS_P1;PMS_P2;Temp;Humidity;BMP_temperature;BMP_pressure;BME280_temperature;BME280_humidity;BME280_pressure;Samples;Min_cycle;Max_cycle;Signal;HPM_P1;HPM_P2
2022/12/07 00:00:42;;;;;;;0.80;0.80;;;;;;;;;;6209951;23;20303;-75
2022/12/07 00:03:08;;;;;;;0.80;0.80;;;;;;;;;;6208840;22;20171;-75
2022/12/07 00:05:33;;;;;;;0.70;0.70;;;;;;;;;;6209763;23;20147;-75
2022/12/07 00:07:59;;;;;;;0.73;0.73;;;;;;;;;;6209736;23;20558;-75
2022/12/07 00:10:25;;;;;;;0.73;0.73;;;;;;;;;;6209119;23;20191;-75
2022/12/07 00:12:51;;;;;;;0.80;0.80;;;;;;;;;;6209035;22;20163;-74
2022/12/07 00:15:17;;;;;;;0.80;0.80;;;;;;;;;;6209908;23;20154;-75
2022/12/07 00:17:43;;;;;;;0.87;0.87;;;;;;;;;;6209764;23;20681;-74
2022/12/07 00:20:10;;;;;;;0.80;0.80;;;;;;;;;;6209556;23;20151;-75
2022/12/07 00:22:35;;;;;;;0.70;0.70;;;;;;;;;;6208842;22;20167;-75
2022/12/07 00:25:01;;;;;;;0.80;0.80;;;;;;;;;;6209554;23;20201;-75
2022/12/07 00:27:28;;;;;;;0.80;0.80;;;;;;;;;;6209615;23;20174;-75
2022/12/07 00:29:54;;;;;;;0.70;0.70;;;;;;;;;;6209622;23;20191;-75
2022/12/07 00:32:20;;;;;;;0.77;0.77;;;;;;;;;;6208836;22;20517;-75
2022/12/07 00:34:46;;;;;;;0.90;0.90;;;;;;;;;;6209031;23;20159;-75
2022/12/07 00:37:12;;;;;;;0.70;0.70;;;;;;;;;;6209521;23;20162;-74
2022/12/07 00:39:38;;;;;;;0.80;0.80;;;;;;;;;;6209005;23;20531;-74
2022/12/07 00:42:04;;;;;;;0.80;0.80;;;;;;;;;;6208690;23;20166;-74
2022/12/07 00:44:30;;;;;;;0.80;0.80;;;;;;;;;;6210169;22;20174;-74
2022/12/07 00:46:56;;;;;;;0.70;0.70;;;;;;;;;;6209112;23;20230;-74
2022/12/07 00:49:22;;;;;;;0.70;0.70;;;;;;;;;;6209220;23;20179;-74
2022/12/07 00:51:49;;;;;;;0.70;0.70;;;;;;;;;;6209349;23;20143;-75
2022/12/07 00:54:15;;;;;;;0.80;0.80;;;;;;;;;;6208932;22;20206;-74
2022/12/07 00:56:41;;;;;;;0.70;0.70;;;;;;;;;;6209162;23;20178;-74
2022/12/07 00:59:07;;;;;;;0.80;0.80;;;;;;;;;;6209452;23;20151;-74
2022/12/07 01:01:34;;;;;;;0.70;0.70;;;;;;;;;;6210374;23;20151;-74
2022/12/07 01:04:03;;;;;;;0.70;0.70;;;;;;;;;;6210188;22;20167;-74
2022/12/07 01:06:30;;;;;;;0.70;0.70;;;;;;;;;;6210823;23;20158;-74
2022/12/07 01:08:56;;;;;;;0.70;0.70;;;;;;;;;;6210219;23;20155;-74
2022/12/07 01:11:24;;;;;;;0.80;0.80;;;;;;;;;;6210600;23;20266;-74
2022/12/07 01:13:50;;;;;;;0.80;0.80;;;;;;;;;;6209824;22;20179;-74
2022/12/07 01:16:17;;;;;;;0.70;0.70;;;;;;;;;;6210184;23;20163;-74
2022/12/07 01:18:46;;;;;;;0.80;0.80;;;;;;;;;;6210419;23;20151;-74
2022/12/07 01:21:13;;;;;;;0.80;0.80;;;;;;;;;;6210460;23;20148;-74
2022/12/07 01:23:39;;;;;;;0.80;0.80;;;;;;;;;;6209769;22;20206;-74
2022/12/07 01:26:07;;;;;;;0.73;0.73;;;;;;;;;;6210481;23;20155;-75
2022/12/07 01:28:34;;;;;;;0.70;0.70;;;;;;;;;;6210449;23;20151;-75
2022/12/07 01:31:01;;;;;;;0.70;0.70;;;;;;;;;;6210029;23;20270;-75
2022/12/07 01:33:28;;;;;;;0.70;0.70;;;;;;;;;;6209704;22;20250;-75
2022/12/07 01:35:54;;;;;;;0.70;0.70;;;;;;;;;;6210128;23;20147;-74
2022/12/07 01:38:20;;;;;;;0.87;0.87;;;;;;;;;;6210065;23;20641;-74
2022/12/07 01:40:46;;;;;;;0.80;0.80;;;;;;;;;;6210417;23;20159;-74
2022/12/07 01:43:19;;;;;;;0.70;0.70;;;;;;;;;;6209262;22;20278;-74
2022/12/07 01:45:45;;;;;;;0.80;0.80;;;;;;;;;;6210451;23;20158;-74
2022/12/07 01:48:11;;;;;;;0.80;0.80;;;;;;;;;;6210332;23;20230;-74
2022/12/07 01:50:38;;;;;;;0.80;0.80;;;;;;;;;;6210266;23;20183;-74
2022/12/07 01:53:05;;;;;;;0.70;0.70;;;;;;;;;;6209421;22;20656;-75
2022/12/07 01:55:31;;;;;;;0.70;0.70;;;;;;;;;;6210555;23;20155;-74
2022/12/07 01:57:58;;;;;;;0.70;0.70;;;;;;;;;;6210492;23;20151;-74
2022/12/07 02:00:24;;;;;;;0.73;0.73;;;;;;;;;;6210261;23;20484;-74
2022/12/07 02:03:07;;;;;;;0.80;0.80;;;;;;;;;;6209297;22;20210;-74
2022/12/07 02:05:34;;;;;;;0.80;0.80;;;;;;;;;;6209957;23;20160;-75
2022/12/07 02:08:00;;;;;;;0.80;0.80;;;;;;;;;;6210282;23;20151;-74
2022/12/07 02:10:28;;;;;;;0.73;0.73;;;;;;;;;;6209778;23;20195;-74
2022/12/07 02:12:56;;;;;;;0.80;0.80;;;;;;;;;;6209587;22;20171;-74
2022/12/07 02:15:24;;;;;;;0.80;0.80;;;;;;;;;;6210188;23;20155;-74
2022/12/07 02:17:56;;;;;;;0.90;0.90;;;;;;;;;;6210249;23;20189;-74
2022/12/07 02:20:41;;;;;;;0.90;0.90;;;;;;;;;;6210205;23;20156;-74
2022/12/07 02:23:24;;;;;;;0.70;0.70;;;;;;;;;;6209533;22;20172;-74
2022/12/07 02:26:08;;;;;;;0.80;0.80;;;;;;;;;;6210208;23;20230;-74
2022/12/07 02:28:40;;;;;;;0.77;0.77;;;;;;;;;;6209822;23;20507;-74
2022/12/07 02:31:11;;;;;;;0.80;0.80;;;;;;;;;;6209965;23;20191;-74
2022/12/07 02:33:49;;;;;;;0.70;0.70;;;;;;;;;;6209409;22;20171;-74
2022/12/07 02:36:38;;;;;;;0.80;0.80;;;;;;;;;;6210055;23;20477;-74
2022/12/07 02:39:23;;;;;;;0.73;0.73;;;;;;;;;;6210208;23;20144;-74
2022/12/07 02:41:53;;;;;;;0.70;0.70;;;;;;;;;;6209978;23;20205;-74
2022/12/07 02:44:20;;;;;;;0.83;0.83;;;;;;;;;;6209168;22;20168;-74
2022/12/07 02:46:50;;;;;;;0.70;0.70;;;;;;;;;;6210187;23;20178;-74
2022/12/07 02:49:16;;;;;;;0.80;0.80;;;;;;;;;;6210042;23;20191;-74
2022/12/07 02:51:43;;;;;;;0.70;0.70;;;;;;;;;;6210262;23;20155;-74
2022/12/07 02:54:12;;;;;;;0.90;0.90;;;;;;;;;;6209422;22;20171;-75
2022/12/07 02:56:43;;;;;;;0.80;0.80;;;;;;;;;;6209854;23;20598;-74
2022/12/07 02:59:09;;;;;;;0.77;0.77;;;;;;;;;;6209959;23;20448;-74
2022/12/07 03:01:38;;;;;;;0.80;0.80;;;;;;;;;;6210052;23;20239;-74
2022/12/07 03:04:13;;;;;;;0.70;0.70;;;;;;;;;;6209465;22;20167;-74
2022/12/07 03:06:43;;;;;;;0.60;0.60;;;;;;;;;;6210066;23;20163;-74
2022/12/07 03:09:19;;;;;;;0.90;0.90;;;;;;;;;;6209866;23;20155;-73
2022/12/07 03:11:48;;;;;;;0.63;0.63;;;;;;;;;;6209704;23;20763;-74
2022/12/07 03:14:18;;;;;;;0.83;0.83;;;;;;;;;;6209284;22;20175;-74
2022/12/07 03:16:49;;;;;;;0.70;0.70;;;;;;;;;;6210118;23;20238;-74
2022/12/07 03:19:20;;;;;;;0.83;0.83;;;;;;;;;;6209616;23;20574;-74
2022/12/07 03:21:58;;;;;;;0.80;0.80;;;;;;;;;;6210001;23;20452;-73
2022/12/07 03:24:28;;;;;;;0.80;0.80;;;;;;;;;;6208895;22;20617;-74
2022/12/07 03:27:14;;;;;;;0.70;0.70;;;;;;;;;;6209997;23;20148;-74
2022/12/07 03:29:46;;;;;;;0.80;0.80;;;;;;;;;;6209325;22;20191;-75
2022/12/07 03:32:17;;;;;;;0.90;0.90;;;;;;;;;;6208910;23;20625;-74
2022/12/07 03:34:52;;;;;;;0.87;0.87;;;;;;;;;;6209775;23;20162;-74
2022/12/07 03:37:20;;;;;;;0.70;0.70;;;;;;;;;;6209815;23;20151;-74
2022/12/07 03:39:50;;;;;;;0.80;0.80;;;;;;;;;;6209403;23;20179;-74
2022/12/07 03:42:16;;;;;;;0.73;0.73;;;;;;;;;;6208624;22;20637;-74
2022/12/07 03:44:43;;;;;;;0.70;0.70;;;;;;;;;;6209849;23;20266;-74
2022/12/07 03:47:09;;;;;;;0.77;0.77;;;;;;;;;;6209777;23;20151;-74
2022/12/07 03:49:44;;;;;;;0.80;0.80;;;;;;;;;;6209697;23;20577;-74
2022/12/07 03:52:13;;;;;;;0.80;0.80;;;;;;;;;;6209234;23;20154;-74
2022/12/07 03:54:45;;;;;;;0.80;0.80;;;;;;;;;;6209704;23;20147;-74
2022/12/07 03:57:12;;;;;;;0.80;0.80;;;;;;;;;;6209782;23;20167;-74
2022/12/07 03:59:39;;;;;;;0.80;0.80;;;;;;;;;;6209315;23;20235;-74
2022/12/07 04:02:06;;;;;;;0.80;0.80;;;;;;;;;;6209226;23;20254;-74
2022/12/07 04:04:32;;;;;;;0.70;0.70;;;;;;;;;;6209606;22;20182;-74
2022/12/07 04:06:59;;;;;;;0.70;0.70;;;;;;;;;;6209683;23;20147;-74
2022/12/07 04:09:25;;;;;;;0.80;0.80;;;;;;;;;;6209160;23;20590;-74
2022/12/07 04:11:51;;;;;;;0.80;0.80;;;;;;;;;;6209819;23;20178;-74
2022/12/07 04:14:20;;;;;;;0.80;0.80;;;;;;;;;;6209049;22;20182;-74
2022/12/07 04:16:51;;;;;;;0.80;0.80;;;;;;;;;;6209685;23;20159;-74
2022/12/07 04:19:17;;;;;;;0.70;0.70;;;;;;;;;;6209762;23;20161;-74
2022/12/07 04:21:43;;;;;;;0.70;0.70;;;;;;;;;;6209756;23;20147;-74
2022/12/07 04:24:09;;;;;;;0.80;0.80;;;;;;;;;;6208545;22;20182;-74
2022/12/07 04:26:36;;;;;;;0.80;0.80;;;;;;;;;;6209498;23;20155;-74
2022/12/07 04:29:02;;;;;;;0.80;0.80;;;;;;;;;;6209530;23;20425;-74
2022/12/07 04:31:28;;;;;;;0.70;0.70;;;;;;;;;;6209300;23;20652;-74
2022/12/07 04:33:54;;;;;;;0.80;0.80;;;;;;;;;;6208843;22;20250;-74
2022/12/07 04:36:20;;;;;;;0.80;0.80;;;;;;;;;;6209843;23;20156;-74
2022/12/07 04:38:46;;;;;;;0.80;0.80;;;;;;;;;;6210355;23;20667;-74
2022/12/07 04:41:12;;;;;;;0.80;0.80;;;;;;;;;;6210729;23;20159;-74
2022/12/07 04:43:38;;;;;;;0.70;0.70;;;;;;;;;;6209491;22;20589;-74
2022/12/07 04:46:04;;;;;;;0.80;0.80;;;;;;;;;;6210620;23;20590;-74
2022/12/07 04:48:30;;;;;;;0.80;0.80;;;;;;;;;;6210638;23;20154;-74
2022/12/07 04:50:57;;;;;;;0.63;0.63;;;;;;;;;;6210102;23;20191;-74
2022/12/07 04:53:23;;;;;;;0.60;0.60;;;;;;;;;;6210024;22;20254;-73
2022/12/07 04:55:49;;;;;;;0.70;0.70;;;;;;;;;;6210098;23;20179;-74
2022/12/07 04:58:15;;;;;;;0.80;0.80;;;;;;;;;;6210624;23;20152;-74
2022/12/07 05:00:41;;;;;;;0.80;0.80;;;;;;;;;;6210556;23;20639;-74
2022/12/07 05:03:07;;;;;;;0.80;0.80;;;;;;;;;;6209894;22;20218;-74
2022/12/07 05:05:33;;;;;;;0.70;0.70;;;;;;;;;;6210565;23;20238;-73
2022/12/07 05:07:59;;;;;;;0.90;0.90;;;;;;;;;;6210118;23;20182;-73
2022/12/07 05:10:25;;;;;;;0.90;0.90;;;;;;;;;;6209785;23;20194;-73
2022/12/07 05:12:51;;;;;;;0.83;0.83;;;;;;;;;;6209111;22;20176;-73
2022/12/07 05:15:17;;;;;;;0.77;0.77;;;;;;;;;;6210578;23;20200;-73
2022/12/07 05:17:43;;;;;;;0.90;0.90;;;;;;;;;;6210144;23;20879;-74
2022/12/07 05:20:10;;;;;;;0.80;0.80;;;;;;;;;;6210492;23;20182;-74
2022/12/07 05:22:35;;;;;;;0.80;0.80;;;;;;;;;;6209409;22;20690;-74
2022/12/07 05:25:02;;;;;;;0.80;0.80;;;;;;;;;;6210496;23;20151;-74
2022/12/07 05:27:27;;;;;;;0.83;0.83;;;;;;;;;;6210457;23;20148;-74
2022/12/07 05:29:53;;;;;;;0.80;0.80;;;;;;;;;;6210197;23;20195;-74
2022/12/07 05:32:19;;;;;;;0.80;0.80;;;;;;;;;;6209483;22;20152;-73
2022/12/07 05:34:46;;;;;;;0.77;0.77;;;;;;;;;;6210886;23;20171;-73
2022/12/07 05:37:12;;;;;;;0.80;0.80;;;;;;;;;;6210673;23;20602;-74
2022/12/07 05:39:40;;;;;;;0.80;0.80;;;;;;;;;;6210897;23;20235;-74
2022/12/07 05:42:12;;;;;;;0.73;0.73;;;;;;;;;;6209929;23;20174;-73
2022/12/07 05:44:39;;;;;;;0.80;0.80;;;;;;;;;;6210047;23;20566;-73
2022/12/07 05:47:05;;;;;;;0.90;0.90;;;;;;;;;;6210023;23;20156;-73
2022/12/07 05:49:31;;;;;;;0.80;0.80;;;;;;;;;;6210239;23;20183;-73
2022/12/07 05:51:57;;;;;;;0.80;0.80;;;;;;;;;;6210504;23;20151;-73
2022/12/07 05:54:23;;;;;;;0.80;0.80;;;;;;;;;;6210192;22;20176;-74
2022/12/07 05:56:49;;;;;;;0.80;0.80;;;;;;;;;;6210273;23;20151;-73
2022/12/07 05:59:24;;;;;;;0.90;0.90;;;;;;;;;;6209828;23;20155;-74
2022/12/07 06:01:50;;;;;;;0.80;0.80;;;;;;;;;;6210326;23;20144;-73
2022/12/07 06:04:17;;;;;;;0.80;0.80;;;;;;;;;;6209579;22;20470;-73
2022/12/07 06:06:43;;;;;;;0.80;0.80;;;;;;;;;;6210304;23;20162;-75
2022/12/07 06:09:09;;;;;;;0.90;0.90;;;;;;;;;;6210379;23;20170;-73
2022/12/07 06:14:20;;;;;;;0.77;0.77;;;;;;;;;;6209397;22;20186;-73
2022/12/07 06:16:46;;;;;;;0.80;0.80;;;;;;;;;;6210239;23;20159;-73
2022/12/07 06:19:12;;;;;;;0.80;0.80;;;;;;;;;;6210231;23;20155;-75
2022/12/07 06:21:38;;;;;;;0.90;0.90;;;;;;;;;;6210258;23;20182;-73
2022/12/07 06:24:04;;;;;;;0.80;0.80;;;;;;;;;;6209457;22;20171;-73
2022/12/07 06:26:30;;;;;;;0.80;0.80;;;;;;;;;;6210110;23;20158;-72
2022/12/07 06:28:56;;;;;;;0.80;0.80;;;;;;;;;;6210453;23;20159;-73
2022/12/07 06:31:22;;;;;;;0.90;0.90;;;;;;;;;;6210864;23;20230;-73
2022/12/07 06:33:48;;;;;;;0.90;0.90;;;;;;;;;;6209361;22;20198;-72
2022/12/07 06:36:14;;;;;;;0.80;0.80;;;;;;;;;;6209907;23;20158;-73
2022/12/07 06:38:40;;;;;;;0.90;0.90;;;;;;;;;;6210249;23;20243;-73
2022/12/07 06:41:06;;;;;;;0.80;0.80;;;;;;;;;;6209705;23;20163;-75
2022/12/07 06:43:32;;;;;;;0.80;0.80;;;;;;;;;;6209586;22;20266;-76
2022/12/07 06:45:58;;;;;;;0.90;0.90;;;;;;;;;;6210293;23;20155;-73
2022/12/07 06:48:24;;;;;;;0.80;0.80;;;;;;;;;;6210273;23;20212;-73
2022/12/07 06:50:50;;;;;;;0.90;0.90;;;;;;;;;;6209908;23;20205;-73
2022/12/07 06:53:16;;;;;;;0.80;0.80;;;;;;;;;;6209360;22;20171;-73
2022/12/07 06:55:42;;;;;;;0.80;0.80;;;;;;;;;;6210203;23;20182;-73
2022/12/07 06:58:08;;;;;;;0.83;0.83;;;;;;;;;;6209533;23;20147;-73
2022/12/07 07:00:35;;;;;;;0.83;0.83;;;;;;;;;;6210068;23;20459;-75
2022/12/07 07:03:01;;;;;;;0.80;0.80;;;;;;;;;;6209368;22;20175;-74
2022/12/07 07:05:27;;;;;;;0.80;0.80;;;;;;;;;;6210002;23;20156;-73
2022/12/07 07:07:53;;;;;;;0.80;0.80;;;;;;;;;;6210047;23;20162;-73
2022/12/07 07:10:19;;;;;;;0.80;0.80;;;;;;;;;;6210556;23;20669;-73
2022/12/07 07:12:44;;;;;;;0.60;0.60;;;;;;;;;;6208742;22;20368;-73
2022/12/07 07:15:11;;;;;;;0.80;0.80;;;;;;;;;;6209217;23;20152;-74
2022/12/07 07:17:37;;;;;;;0.70;0.70;;;;;;;;;;6209167;23;20156;-73
2022/12/07 07:20:04;;;;;;;0.90;0.90;;;;;;;;;;6209952;23;20155;-75
2022/12/07 07:22:30;;;;;;;0.80;0.80;;;;;;;;;;6209265;22;20151;-73
2022/12/07 07:24:56;;;;;;;0.70;0.70;;;;;;;;;;6205299;23;20151;-76
2022/12/07 07:27:22;;;;;;;0.90;0.90;;;;;;;;;;6207379;23;20508;-75
2022/12/07 07:29:48;;;;;;;0.80;0.80;;;;;;;;;;6209068;23;20270;-76
2022/12/07 07:32:14;;;;;;;0.77;0.77;;;;;;;;;;6208943;22;20147;-73
2022/12/07 07:34:40;;;;;;;0.97;0.97;;;;;;;;;;6209234;23;20597;-76
2022/12/07 07:37:06;;;;;;;0.80;0.80;;;;;;;;;;6209877;23;20155;-75
2022/12/07 07:39:32;;;;;;;0.80;0.80;;;;;;;;;;6209882;23;20682;-75
2022/12/07 07:41:58;;;;;;;0.80;0.80;;;;;;;;;;6209000;23;20178;-74
2022/12/07 07:44:24;;;;;;;0.90;0.90;;;;;;;;;;6209776;22;20168;-76
2022/12/07 07:46:50;;;;;;;0.80;0.80;;;;;;;;;;6209471;23;20216;-76
2022/12/07 07:49:16;;;;;;;0.80;0.80;;;;;;;;;;6208747;23;20155;-76
2022/12/07 07:51:42;;;;;;;0.70;0.70;;;;;;;;;;6209798;23;20177;-73
2022/12/07 07:54:08;;;;;;;0.80;0.80;;;;;;;;;;6209460;22;20183;-73
2022/12/07 07:56:33;;;;;;;0.90;0.90;;;;;;;;;;6209842;23;20445;-75
2022/12/07 07:58:59;;;;;;;0.83;0.83;;;;;;;;;;6209493;23;20208;-75
2022/12/07 08:01:25;;;;;;;0.80;0.80;;;;;;;;;;6209715;23;20160;-75
2022/12/07 08:03:51;;;;;;;0.70;0.70;;;;;;;;;;6209131;22;20690;-75
2022/12/07 08:06:17;;;;;;;0.90;0.90;;;;;;;;;;6209380;23;20152;-76
2022/12/07 08:08:43;;;;;;;0.80;0.80;;;;;;;;;;6209632;23;20234;-75
2022/12/07 08:11:09;;;;;;;0.73;0.73;;;;;;;;;;6209058;23;20288;-76
2022/12/07 08:13:36;;;;;;;0.80;0.80;;;;;;;;;;6208979;22;20167;-75
2022/12/07 08:16:06;;;;;;;0.70;0.70;;;;;;;;;;6209643;23;20155;-76
2022/12/07 08:18:35;;;;;;;0.80;0.80;;;;;;;;;;6209735;23;20151;-75
2022/12/07 08:21:01;;;;;;;0.80;0.80;;;;;;;;;;6209740;23;20151;-74
2022/12/07 08:23:27;;;;;;;0.73;0.73;;;;;;;;;;6208846;22;20220;-76
2022/12/07 08:25:53;;;;;;;0.77;0.77;;;;;;;;;;6209624;23;20155;-75
2022/12/07 08:28:19;;;;;;;0.83;0.83;;;;;;;;;;6209656;23;20616;-75
2022/12/07 08:30:45;;;;;;;0.80;0.80;;;;;;;;;;6209247;23;20186;-76
2022/12/07 08:33:11;;;;;;;0.80;0.80;;;;;;;;;;6208396;22;20181;-75
2022/12/07 08:35:37;;;;;;;0.80;0.80;;;;;;;;;;6208106;23;20174;-76
2022/12/07 08:38:03;;;;;;;0.70;0.70;;;;;;;;;;6209801;23;20153;-76
2022/12/07 08:40:29;;;;;;;0.80;0.80;;;;;;;;;;6210215;23;20160;-76
2022/12/07 08:42:55;;;;;;;0.70;0.70;;;;;;;;;;6208861;22;20574;-76
2022/12/07 08:45:22;;;;;;;0.73;0.73;;;;;;;;;;6209984;23;20155;-76
2022/12/07 08:48:03;;;;;;;0.87;0.87;;;;;;;;;;6209398;23;20170;-76
2022/12/07 08:50:30;;;;;;;0.70;0.70;;;;;;;;;;6208281;23;20304;-76
2022/12/07 08:52:57;;;;;;;0.70;0.70;;;;;;;;;;6208803;22;20172;-76
2022/12/07 08:55:24;;;;;;;0.80;0.80;;;;;;;;;;6209458;23;20175;-75
2022/12/07 08:57:50;;;;;;;0.70;0.70;;;;;;;;;;6209561;23;20196;-76
2022/12/07 09:00:19;;;;;;;0.90;0.90;;;;;;;;;;6209194;23;20156;-76
2022/12/07 09:02:46;;;;;;;0.80;0.80;;;;;;;;;;6210037;22;20182;-76
2022/12/07 09:05:14;;;;;;;0.70;0.70;;;;;;;;;;6209312;23;20196;-76
2022/12/07 09:07:41;;;;;;;0.80;0.80;;;;;;;;;;6208670;23;20179;-76
2022/12/07 09:10:07;;;;;;;0.80;0.80;;;;;;;;;;6208140;23;20212;-76
2022/12/07 09:12:33;;;;;;;0.70;0.70;;;;;;;;;;6208305;22;20226;-76
2022/12/07 09:15:00;;;;;;;0.80;0.80;;;;;;;;;;6209000;23;20147;-76
2022/12/07 09:17:26;;;;;;;0.70;0.70;;;;;;;;;;6208836;23;20242;-76
2022/12/07 09:19:52;;;;;;;0.73;0.73;;;;;;;;;;6208968;23;20156;-75
2022/12/07 09:22:18;;;;;;;0.73;0.73;;;;;;;;;;6209320;22;20159;-75
2022/12/07 09:24:45;;;;;;;0.70;0.70;;;;;;;;;;6210015;23;20252;-75
2022/12/07 09:27:11;;;;;;;0.80;0.80;;;;;;;;;;6210230;23;20594;-76
2022/12/07 09:29:37;;;;;;;0.83;0.83;;;;;;;;;;6210429;23;20179;-76
2022/12/07 09:32:03;;;;;;;0.70;0.70;;;;;;;;;;6202829;23;20183;-75
2022/12/07 09:34:31;;;;;;;0.90;0.90;;;;;;;;;;6207576;22;20633;-76
2022/12/07 09:36:57;;;;;;;0.70;0.70;;;;;;;;;;6209082;23;20790;-76
2022/12/07 09:39:23;;;;;;;0.73;0.73;;;;;;;;;;6209187;23;20293;-76
2022/12/07 09:41:49;;;;;;;0.80;0.80;;;;;;;;;;6209708;23;20163;-76
2022/12/07 09:44:22;;;;;;;0.70;0.70;;;;;;;;;;6209588;22;20171;-75
2022/12/07 09:46:49;;;;;;;0.70;0.70;;;;;;;;;;6209516;23;20627;-76
2022/12/07 09:49:18;;;;;;;0.77;0.77;;;;;;;;;;6209956;23;20155;-76
2022/12/07 09:51:44;;;;;;;0.70;0.70;;;;;;;;;;6209406;23;20160;-76
2022/12/07 09:54:13;;;;;;;0.70;0.70;;;;;;;;;;6208906;22;20614;-76
2022/12/07 09:56:39;;;;;;;0.70;0.70;;;;;;;;;;6209689;23;20154;-76
2022/12/07 09:59:05;;;;;;;0.80;0.80;;;;;;;;;;6209893;23;20152;-77
2022/12/07 10:01:32;;;;;;;0.70;0.70;;;;;;;;;;6209782;23;20155;-77
2022/12/07 10:04:07;;;;;;;0.67;0.67;;;;;;;;;;6208908;22;20178;-77
2022/12/07 10:06:33;;;;;;;0.80;0.80;;;;;;;;;;6207852;23;20154;-76
2022/12/07 10:08:59;;;;;;;0.70;0.70;;;;;;;;;;6211064;23;20609;-76
2022/12/07 10:11:25;;;;;;;0.70;0.70;;;;;;;;;;6209724;23;20324;-77
2022/12/07 10:13:54;;;;;;;0.70;0.70;;;;;;;;;;6208973;22;20178;-76
2022/12/07 10:16:38;;;;;;;0.80;0.80;;;;;;;;;;6209340;23;20159;-76
2022/12/07 10:19:30;;;;;;;0.80;0.80;;;;;;;;;;6209777;23;20151;-76
2022/12/07 10:21:59;;;;;;;0.70;0.70;;;;;;;;;;6210343;23;20155;-76
2022/12/07 10:24:25;;;;;;;0.63;0.63;;;;;;;;;;6209769;22;20181;-76
2022/12/07 10:26:52;;;;;;;0.70;0.70;;;;;;;;;;6209050;23;20183;-76
2022/12/07 10:29:20;;;;;;;0.70;0.70;;;;;;;;;;6207637;23;20154;-76
2022/12/07 10:31:48;;;;;;;0.70;0.70;;;;;;;;;;6209002;23;20194;-77
2022/12/07 10:34:29;;;;;;;0.70;0.70;;;;;;;;;;6207838;22;20164;-77
2022/12/07 10:37:07;;;;;;;0.80;0.80;;;;;;;;;;6209558;23;20155;-77
2022/12/07 10:39:41;;;;;;;0.73;0.73;;;;;;;;;;6210143;23;20144;-77
2022/12/07 10:42:16;;;;;;;0.70;0.70;;;;;;;;;;6209110;23;20219;-76
2022/12/07 10:44:43;;;;;;;0.70;0.70;;;;;;;;;;6209474;23;20238;-76
2022/12/07 10:47:15;;;;;;;0.70;0.70;;;;;;;;;;6210449;23;20226;-77
2022/12/07 10:49:56;;;;;;;0.73;0.73;;;;;;;;;;6210604;23;20186;-78
2022/12/07 10:52:31;;;;;;;0.67;0.67;;;;;;;;;;6209111;22;20594;-78
2022/12/07 10:55:09;;;;;;;0.70;0.70;;;;;;;;;;6210187;23;20147;-78
2022/12/07 10:57:47;;;;;;;0.80;0.80;;;;;;;;;;6211059;23;20178;-78
2022/12/07 11:00:16;;;;;;;0.73;0.73;;;;;;;;;;6210330;23;20183;-78
2022/12/07 11:02:42;;;;;;;0.60;0.60;;;;;;;;;;6209190;22;20171;-78
2022/12/07 11:05:12;;;;;;;0.80;0.80;;;;;;;;;;6209710;23;20156;-77
2022/12/07 11:07:37;;;;;;;0.70;0.70;;;;;;;;;;6209995;23;20151;-77
2022/12/07 11:10:10;;;;;;;0.70;0.70;;;;;;;;;;6210230;23;20233;-78
2022/12/07 11:12:50;;;;;;;0.70;0.70;;;;;;;;;;6210513;22;20182;-79
2022/12/07 11:15:18;;;;;;;0.80;0.80;;;;;;;;;;6211388;23;20461;-79
2022/12/07 11:18:03;;;;;;;0.80;0.80;;;;;;;;;;6210559;23;20613;-79
2022/12/07 11:20:30;;;;;;;0.70;0.70;;;;;;;;;;6212907;23;20168;-78
2022/12/07 11:23:04;;;;;;;0.70;0.70;;;;;;;;;;6210572;22;20176;-77
2022/12/07 11:25:37;;;;;;;0.70;0.70;;;;;;;;;;6212027;23;20152;-79
2022/12/07 11:28:19;;;;;;;0.73;0.73;;;;;;;;;;6212984;23;20144;-78
2022/12/07 11:30:45;;;;;;;0.70;0.70;;;;;;;;;;6210152;23;20186;-77
2022/12/07 11:33:11;;;;;;;0.70;0.70;;;;;;;;;;6208882;22;20323;-78
2022/12/07 11:35:38;;;;;;;0.80;0.80;;;;;;;;;;6209964;23;20155;-77
2022/12/07 11:38:10;;;;;;;0.80;0.80;;;;;;;;;;6209824;23;20161;-77
2022/12/07 11:40:37;;;;;;;0.80;0.80;;;;;;;;;;6210414;23;20582;-77
2022/12/07 11:43:18;;;;;;;0.70;0.70;;;;;;;;;;6209954;22;20243;-78
2022/12/07 11:45:47;;;;;;;0.70;0.70;;;;;;;;;;6211593;23;20529;-78
2022/12/07 11:48:34;;;;;;;0.70;0.70;;;;;;;;;;6211941;23;20644;-77
2022/12/07 11:51:02;;;;;;;0.70;0.70;;;;;;;;;;6211647;23;20179;-78
2022/12/07 11:53:44;;;;;;;0.70;0.70;;;;;;;;;;6210445;22;20502;-78
2022/12/07 11:56:10;;;;;;;0.70;0.70;;;;;;;;;;6211764;23;20155;-78
2022/12/07 11:58:57;;;;;;;0.80;0.80;;;;;;;;;;6211851;23;20616;-78
2022/12/07 12:01:23;;;;;;;0.70;0.70;;;;;;;;;;6210848;23;20196;-77
2022/12/07 12:04:07;;;;;;;0.70;0.70;;;;;;;;;;6210115;22;20167;-77
2022/12/07 12:06:35;;;;;;;0.80;0.80;;;;;;;;;;6210681;23;20155;-77
2022/12/07 12:09:19;;;;;;;0.80;0.80;;;;;;;;;;6211859;23;20734;-78
2022/12/07 12:11:48;;;;;;;0.80;0.80;;;;;;;;;;6211642;23;20191;-78
2022/12/07 12:14:33;;;;;;;0.70;0.70;;;;;;;;;;6211116;22;20633;-77
2022/12/07 12:17:14;;;;;;;0.70;0.70;;;;;;;;;;6210454;23;20147;-78
2022/12/07 12:19:59;;;;;;;0.80;0.80;;;;;;;;;;6211248;23;20159;-78
2022/12/07 12:22:28;;;;;;;0.70;0.70;;;;;;;;;;6212234;22;20230;-78
2022/12/07 12:24:55;;;;;;;0.77;0.77;;;;;;;;;;6211505;23;20151;-77
2022/12/07 12:27:25;;;;;;;0.60;0.60;;;;;;;;;;6210289;23;20158;-77
2022/12/07 12:29:53;;;;;;;0.70;0.70;;;;;;;;;;6217356;23;20238;-78
2022/12/07 12:32:19;;;;;;;0.73;0.73;;;;;;;;;;6218844;22;20155;-77
2022/12/07 12:34:48;;;;;;;0.70;0.70;;;;;;;;;;6224427;23;20196;-78
2022/12/07 12:37:32;;;;;;;0.70;0.70;;;;;;;;;;6215745;23;20163;-76
2022/12/07 12:40:16;;;;;;;0.73;0.73;;;;;;;;;;6211980;23;20593;-77
2022/12/07 12:42:50;;;;;;;0.70;0.70;;;;;;;;;;6208206;22;20649;-77
2022/12/07 12:45:20;;;;;;;0.63;0.63;;;;;;;;;;6207149;23;20185;-77
2022/12/07 12:47:53;;;;;;;0.80;0.80;;;;;;;;;;6207358;23;20258;-77
2022/12/07 12:50:21;;;;;;;0.70;0.70;;;;;;;;;;6208753;23;20188;-76
2022/12/07 12:52:51;;;;;;;0.77;0.77;;;;;;;;;;6207930;22;20505;-76
2022/12/07 12:55:20;;;;;;;0.70;0.70;;;;;;;;;;6208956;23;20148;-76
2022/12/07 12:57:46;;;;;;;0.70;0.70;;;;;;;;;;6208098;23;20554;-77
2022/12/07 13:00:22;;;;;;;0.70;0.70;;;;;;;;;;6210248;23;20155;-77
2022/12/07 13:02:50;;;;;;;0.70;0.70;;;;;;;;;;6209243;22;20182;-76
2022/12/07 13:05:19;;;;;;;0.60;0.60;;;;;;;;;;6209373;23;20234;-76
2022/12/07 13:07:51;;;;;;;0.70;0.70;;;;;;;;;;6209996;23;20155;-76
2022/12/07 13:10:29;;;;;;;0.70;0.70;;;;;;;;;;6209325;23;20686;-77
2022/12/07 13:13:17;;;;;;;0.60;0.60;;;;;;;;;;6210365;22;20175;-78
2022/12/07 13:15:43;;;;;;;0.70;0.70;;;;;;;;;;6215119;23;20155;-78
2022/12/07 13:18:24;;;;;;;0.80;0.80;;;;;;;;;;6211053;23;20602;-78
2022/12/07 13:20:50;;;;;;;0.70;0.70;;;;;;;;;;6211395;23;20162;-77
2022/12/07 13:23:24;;;;;;;0.77;0.77;;;;;;;;;;6210127;22;20179;-77
2022/12/07 13:25:55;;;;;;;0.70;0.70;;;;;;;;;;6211681;23;20216;-78
2022/12/07 13:28:25;;;;;;;0.70;0.70;;;;;;;;;;6209564;23;20499;-77
2022/12/07 13:31:02;;;;;;;0.80;0.80;;;;;;;;;;6213806;23;20208;-78
2022/12/07 13:33:29;;;;;;;0.63;0.63;;;;;;;;;;6214439;22;20182;-79
2022/12/07 13:35:56;;;;;;;0.70;0.70;;;;;;;;;;6212182;23;20204;-79
2022/12/07 13:38:30;;;;;;;0.80;0.80;;;;;;;;;;6211357;23;20201;-78
2022/12/07 13:41:04;;;;;;;0.70;0.70;;;;;;;;;;6210026;23;20147;-77
2022/12/07 13:43:30;;;;;;;0.70;0.70;;;;;;;;;;6209413;22;20183;-77
2022/12/07 13:45:57;;;;;;;0.70;0.70;;;;;;;;;;6212396;23;20165;-77
2022/12/07 13:48:33;;;;;;;0.80;0.80;;;;;;;;;;6211069;23;20605;-77
2022/12/07 13:51:01;;;;;;;0.70;0.70;;;;;;;;;;6213111;23;20187;-77
2022/12/07 13:53:30;;;;;;;0.70;0.70;;;;;;;;;;6212916;22;20179;-77
2022/12/07 13:55:56;;;;;;;0.67;0.67;;;;;;;;;;6210330;23;20151;-77
2022/12/07 13:58:22;;;;;;;0.70;0.70;;;;;;;;;;6210421;23;20166;-77
2022/12/07 14:00:49;;;;;;;0.80;0.80;;;;;;;;;;6209939;23;20167;-77
2022/12/07 14:03:14;;;;;;;0.70;0.70;;;;;;;;;;6209544;22;20175;-77
2022/12/07 14:05:41;;;;;;;0.80;0.80;;;;;;;;;;6209739;23;20166;-77
2022/12/07 14:08:10;;;;;;;0.70;0.70;;;;;;;;;;6210010;23;20155;-78
2022/12/07 14:10:39;;;;;;;0.80;0.80;;;;;;;;;;6209744;23;20697;-78
2022/12/07 14:13:25;;;;;;;0.80;0.80;;;;;;;;;;6206624;22;20178;-77
2022/12/07 14:15:52;;;;;;;0.73;0.73;;;;;;;;;;6209140;23;20547;-77
2022/12/07 14:18:36;;;;;;;0.70;0.70;;;;;;;;;;6209211;23;20617;-77
2022/12/07 14:21:23;;;;;;;0.80;0.80;;;;;;;;;;6209152;23;20159;-77
2022/12/07 14:24:08;;;;;;;0.80;0.80;;;;;;;;;;6208887;22;20171;-77
2022/12/07 14:26:33;;;;;;;0.87;0.87;;;;;;;;;;6209552;23;20151;-77
2022/12/07 14:29:18;;;;;;;0.70;0.70;;;;;;;;;;6209815;23;20571;-78
2022/12/07 14:31:44;;;;;;;0.63;0.63;;;;;;;;;;6209174;23;20235;-78
2022/12/07 14:34:13;;;;;;;0.90;0.90;;;;;;;;;;6209207;22;20262;-78
2022/12/07 14:36:39;;;;;;;0.87;0.87;;;;;;;;;;6210632;23;20239;-78
2022/12/07 14:39:05;;;;;;;0.70;0.70;;;;;;;;;;6210424;23;20152;-78
2022/12/07 14:44:16;;;;;;;0.77;0.77;;;;;;;;;;6210088;22;20239;-78
2022/12/07 14:46:41;;;;;;;0.70;0.70;;;;;;;;;;6210065;23;20163;-78
2022/12/07 14:49:08;;;;;;;0.80;0.80;;;;;;;;;;6209723;23;20158;-77
2022/12/07 14:51:34;;;;;;;0.70;0.70;;;;;;;;;;6210226;23;20178;-77
2022/12/07 14:54:00;;;;;;;0.70;0.70;;;;;;;;;;6209138;22;20618;-77
2022/12/07 14:56:27;;;;;;;0.80;0.80;;;;;;;;;;6210194;23;20166;-77
2022/12/07 14:58:53;;;;;;;0.90;0.90;;;;;;;;;;6210282;23;20158;-77